sensor_id;sensor_type;location;lat;lon;timestamp;P1;durP1;ratioP1;P2;durP2;ratioP2
14381;SDS011;7275;50.328;8.720;2023-02-04T00:00:15;9.50;;;3.70;;
14381;SDS011;7275;50.328;8.720;2023-02-04T00:02:44;6.53;;;2.70;;
14381;SDS011;7275;50.328;8.720;2023-02-04T00:05:12;8.27;;;2.53;;
14381;SDS011;7275;50.328;8.720;2023-02-04T00:07:41;5.70;;;2.40;;
14381;SDS011;7275;50.328;8.720;2023-02-04T00:10:09;6.03;;;2.33;;
14381;SDS011;7275;50.328;8.720;2023-02-04T00:12:36;5.40;;;1.93;;
14381;SDS011;7275;50.328;8.720;2023-02-04T00:15:04;5.70;;;2.20;;
14381;SDS011;7275;50.328;8.720;2023-02-04T00:17:32;5.27;;;2.20;;
14381;SDS011;7275;50.328;8.720;2023-02-04T00:19:59;5.37;;;2.00;;
14381;SDS011;7275;50.328;8.720;2023-02-04T00:22:27;7.00;;;2.40;;
14381;SDS011;7275;50.328;8.720;2023-02-04T00:24:56;5.67;;;2.17;;
14381;SDS011;7275;50.328;8.720;2023-02-04T00:27:23;7.67;;;1.93;;
14381;SDS011;7275;50.328;8.720;2023-02-04T00:29:50;6.67;;;2.40;;
14381;SDS011;7275;50.328;8.720;2023-02-04T00:32:18;6.43;;;1.87;;
14381;SDS011;7275;50.328;8.720;2023-02-04T00:34:45;9.23;;;2.57;;
14381;SDS011;7275;50.328;8.720;2023-02-04T00:37:13;7.10;;;2.23;;
14381;SDS011;7275;50.328;8.720;2023-02-04T00:39:41;6.90;;;2.10;;
14381;SDS011;7275;50.328;8.720;2023-02-04T00:42:09;6.93;;;2.10;;
14381;SDS011;7275;50.328;8.720;2023-02-04T00:44:37;5.00;;;1.87;;
14381;SDS011;7275;50.328;8.720;2023-02-04T00:47:04;9.23;;;2.57;;
14381;SDS011;7275;50.328;8.720;2023-02-04T00:49:32;7.13;;;2.47;;
14381;SDS011;7275;50.328;8.720;2023-02-04T00:52:00;7.33;;;2.07;;
14381;SDS011;7275;50.328;8.720;2023-02-04T00:54:28;7.77;;;2.00;;
14381;SDS011;7275;50.328;8.720;2023-02-04T00:56:56;5.80;;;2.07;;
14381;SDS011;7275;50.328;8.720;2023-02-04T00:59:25;5.20;;;1.90;;
14381;SDS011;7275;50.328;8.720;2023-02-04T01:01:52;6.53;;;2.40;;
14381;SDS011;7275;50.328;8.720;2023-02-04T01:04:20;6.17;;;2.13;;
14381;SDS011;7275;50.328;8.720;2023-02-04T01:06:48;7.67;;;2.10;;
14381;SDS011;7275;50.328;8.720;2023-02-04T01:09:15;6.57;;;2.00;;
14381;SDS011;7275;50.328;8.720;2023-02-04T01:11:43;6.00;;;2.10;;
14381;SDS011;7275;50.328;8.720;2023-02-04T01:14:10;7.53;;;2.17;;
14381;SDS011;7275;50.328;8.720;2023-02-04T01:16:40;7.47;;;2.40;;
14381;SDS011;7275;50.328;8.720;2023-02-04T01:19:07;6.47;;;2.13;;
14381;SDS011;7275;50.328;8.720;2023-02-04T01:21:35;6.37;;;2.10;;
14381;SDS011;7275;50.328;8.720;2023-02-04T01:24:02;5.37;;;1.87;;
14381;SDS011;7275;50.328;8.720;2023-02-04T01:26:30;7.23;;;2.43;;
14381;SDS011;7275;50.328;8.720;2023-02-04T01:28:57;6.90;;;2.10;;
14381;SDS011;7275;50.328;8.720;2023-02-04T01:31:25;7.53;;;2.10;;
14381;SDS011;7275;50.328;8.720;2023-02-04T01:33:54;4.57;;;1.90;;
14381;SDS011;7275;50.328;8.720;2023-02-04T01:36:22;6.03;;;2.03;;
14381;SDS011;7275;50.328;8.720;2023-02-04T01:38:49;6.30;;;2.40;;
14381;SDS011;7275;50.328;8.720;2023-02-04T01:41:17;5.30;;;2.10;;
14381;SDS011;7275;50.328;8.720;2023-02-04T01:43:45;5.60;;;2.27;;
14381;SDS011;7275;50.328;8.720;2023-02-04T01:46:13;6.40;;;2.40;;
14381;SDS011;7275;50.328;8.720;2023-02-04T01:48:41;8.10;;;2.30;;
14381;SDS011;7275;50.328;8.720;2023-02-04T01:51:11;7.40;;;2.33;;
14381;SDS011;7275;50.328;8.720;2023-02-04T01:53:42;7.77;;;2.80;;
14381;SDS011;7275;50.328;8.720;2023-02-04T01:56:13;7.63;;;2.60;;
14381;SDS011;7275;50.328;8.720;2023-02-04T01:58:43;9.07;;;2.70;;
14381;SDS011;7275;50.328;8.720;2023-02-04T02:01:11;7.40;;;2.60;;
14381;SDS011;7275;50.328;8.720;2023-02-04T02:03:40;6.43;;;2.83;;
14381;SDS011;7275;50.328;8.720;2023-02-04T02:06:08;6.57;;;2.23;;
14381;SDS011;7275;50.328;8.720;2023-02-04T02:08:38;5.70;;;2.10;;
14381;SDS011;7275;50.328;8.720;2023-02-04T02:11:05;6.27;;;2.00;;
14381;SDS011;7275;50.328;8.720;2023-02-04T02:13:33;5.87;;;2.07;;
14381;SDS011;7275;50.328;8.720;2023-02-04T02:16:00;6.03;;;2.20;;
14381;SDS011;7275;50.328;8.720;2023-02-04T02:18:28;8.47;;;1.93;;
14381;SDS011;7275;50.328;8.720;2023-02-04T02:20:55;5.40;;;2.03;;
14381;SDS011;7275;50.328;8.720;2023-02-04T02:23:26;7.67;;;2.00;;
14381;SDS011;7275;50.328;8.720;2023-02-04T02:26:11;6.83;;;2.27;;
14381;SDS011;7275;50.328;8.720;2023-02-04T02:28:39;5.47;;;2.27;;
14381;SDS011;7275;50.328;8.720;2023-02-04T02:31:07;7.03;;;2.03;;
14381;SDS011;7275;50.328;8.720;2023-02-04T02:33:35;4.67;;;2.10;;
14381;SDS011;7275;50.328;8.720;2023-02-04T02:36:03;5.37;;;1.70;;
14381;SDS011;7275;50.328;8.720;2023-02-04T02:38:31;6.70;;;2.03;;
14381;SDS011;7275;50.328;8.720;2023-02-04T02:41:00;5.90;;;2.10;;
14381;SDS011;7275;50.328;8.720;2023-02-04T02:43:28;7.33;;;2.23;;
14381;SDS011;7275;50.328;8.720;2023-02-04T02:45:57;7.50;;;1.97;;
14381;SDS011;7275;50.328;8.720;2023-02-04T02:48:26;7.10;;;2.10;;
14381;SDS011;7275;50.328;8.720;2023-02-04T02:50:54;6.53;;;2.00;;
14381;SDS011;7275;50.328;8.720;2023-02-04T02:53:22;6.20;;;2.20;;
14381;SDS011;7275;50.328;8.720;2023-02-04T02:55:49;5.70;;;2.30;;
14381;SDS011;7275;50.328;8.720;2023-02-04T02:58:21;9.73;;;2.43;;
14381;SDS011;7275;50.328;8.720;2023-02-04T03:00:51;6.70;;;2.40;;
14381;SDS011;7275;50.328;8.720;2023-02-04T03:03:19;6.57;;;2.20;;
14381;SDS011;7275;50.328;8.720;2023-02-04T03:05:56;5.13;;;2.13;;
14381;SDS011;7275;50.328;8.720;2023-02-04T03:08:28;7.97;;;2.73;;
14381;SDS011;7275;50.328;8.720;2023-02-04T03:10:55;6.20;;;2.13;;
14381;SDS011;7275;50.328;8.720;2023-02-04T03:13:24;6.27;;;2.30;;
14381;SDS011;7275;50.328;8.720;2023-02-04T03:15:52;7.27;;;2.20;;
14381;SDS011;7275;50.328;8.720;2023-02-04T03:18:20;5.87;;;1.93;;
14381;SDS011;7275;50.328;8.720;2023-02-04T03:20:48;9.70;;;2.17;;
14381;SDS011;7275;50.328;8.720;2023-02-04T03:23:17;6.80;;;2.40;;
14381;SDS011;7275;50.328;8.720;2023-02-04T03:25:46;6.53;;;2.13;;
14381;SDS011;7275;50.328;8.720;2023-02-04T03:28:13;7.17;;;2.30;;
14381;SDS011;7275;50.328;8.720;2023-02-04T03:30:42;7.40;;;2.30;;
14381;SDS011;7275;50.328;8.720;2023-02-04T03:33:18;6.33;;;2.23;;
14381;SDS011;7275;50.328;8.720;2023-02-04T03:35:46;6.87;;;2.20;;
14381;SDS011;7275;50.328;8.720;2023-02-04T03:38:13;8.07;;;2.43;;
14381;SDS011;7275;50.328;8.720;2023-02-04T03:40:41;6.00;;;2.20;;
14381;SDS011;7275;50.328;8.720;2023-02-04T03:43:08;5.77;;;2.10;;
14381;SDS011;7275;50.328;8.720;2023-02-04T03:45:36;6.37;;;2.10;;
14381;SDS011;7275;50.328;8.720;2023-02-04T03:48:12;7.87;;;2.20;;
14381;SDS011;7275;50.328;8.720;2023-02-04T03:50:39;8.40;;;2.27;;
14381;SDS011;7275;50.328;8.720;2023-02-04T03:53:07;6.97;;;2.20;;
14381;SDS011;7275;50.328;8.720;2023-02-04T03:55:35;8.47;;;2.13;;
14381;SDS011;7275;50.328;8.720;2023-02-04T03:58:02;10.07;;;2.37;;
14381;SDS011;7275;50.328;8.720;2023-02-04T04:00:30;8.30;;;2.40;;
14381;SDS011;7275;50.328;8.720;2023-02-04T04:02:58;6.93;;;2.50;;
14381;SDS011;7275;50.328;8.720;2023-02-04T04:05:27;5.90;;;2.17;;
14381;SDS011;7275;50.328;8.720;2023-02-04T04:07:55;7.27;;;2.53;;
14381;SDS011;7275;50.328;8.720;2023-02-04T04:10:22;7.47;;;2.30;;
14381;SDS011;7275;50.328;8.720;2023-02-04T04:12:50;6.30;;;2.17;;
14381;SDS011;7275;50.328;8.720;2023-02-04T04:15:18;6.10;;;2.00;;
14381;SDS011;7275;50.328;8.720;2023-02-04T04:17:45;6.33;;;2.20;;
14381;SDS011;7275;50.328;8.720;2023-02-04T04:20:13;5.20;;;2.13;;
14381;SDS011;7275;50.328;8.720;2023-02-04T04:22:41;7.17;;;2.40;;
14381;SDS011;7275;50.328;8.720;2023-02-04T04:25:10;8.20;;;2.93;;
14381;SDS011;7275;50.328;8.720;2023-02-04T04:27:38;8.93;;;2.47;;
14381;SDS011;7275;50.328;8.720;2023-02-04T04:30:05;9.67;;;2.50;;
14381;SDS011;7275;50.328;8.720;2023-02-04T04:32:33;8.03;;;2.30;;
14381;SDS011;7275;50.328;8.720;2023-02-04T04:35:01;8.30;;;2.23;;
14381;SDS011;7275;50.328;8.720;2023-02-04T04:37:28;6.90;;;2.20;;
14381;SDS011;7275;50.328;8.720;2023-02-04T04:39:57;6.50;;;2.10;;
14381;SDS011;7275;50.328;8.720;2023-02-04T04:42:26;7.63;;;2.20;;
14381;SDS011;7275;50.328;8.720;2023-02-04T04:44:53;10.57;;;2.90;;
14381;SDS011;7275;50.328;8.720;2023-02-04T04:47:21;9.00;;;2.37;;
14381;SDS011;7275;50.328;8.720;2023-02-04T04:49:48;5.20;;;2.10;;
14381;SDS011;7275;50.328;8.720;2023-02-04T04:52:16;9.97;;;2.37;;
14381;SDS011;7275;50.328;8.720;2023-02-04T04:54:43;9.33;;;2.67;;
14381;SDS011;7275;50.328;8.720;2023-02-04T04:57:12;9.17;;;2.50;;
14381;SDS011;7275;50.328;8.720;2023-02-04T04:59:39;7.40;;;2.50;;
14381;SDS011;7275;50.328;8.720;2023-02-04T05:02:07;6.67;;;2.20;;
14381;SDS011;7275;50.328;8.720;2023-02-04T05:04:34;9.00;;;2.67;;
14381;SDS011;7275;50.328;8.720;2023-02-04T05:07:02;8.93;;;2.53;;
14381;SDS011;7275;50.328;8.720;2023-02-04T05:09:29;11.90;;;2.53;;
14381;SDS011;7275;50.328;8.720;2023-02-04T05:11:57;7.40;;;2.50;;
14381;SDS011;7275;50.328;8.720;2023-02-04T05:14:25;11.07;;;2.47;;
14381;SDS011;7275;50.328;8.720;2023-02-04T05:16:53;9.97;;;2.90;;
14381;SDS011;7275;50.328;8.720;2023-02-04T05:19:20;9.63;;;2.77;;
14381;SDS011;7275;50.328;8.720;2023-02-04T05:21:48;10.53;;;2.60;;
14381;SDS011;7275;50.328;8.720;2023-02-04T05:24:15;9.40;;;2.30;;
14381;SDS011;7275;50.328;8.720;2023-02-04T05:26:43;7.43;;;2.87;;
14381;SDS011;7275;50.328;8.720;2023-02-04T05:29:10;8.73;;;2.93;;
14381;SDS011;7275;50.328;8.720;2023-02-04T05:31:39;7.10;;;2.30;;
14381;SDS011;7275;50.328;8.720;2023-02-04T05:34:07;8.47;;;2.90;;
14381;SDS011;7275;50.328;8.720;2023-02-04T05:36:34;10.77;;;2.83;;
14381;SDS011;7275;50.328;8.720;2023-02-04T05:39:02;9.20;;;3.20;;
14381;SDS011;7275;50.328;8.720;2023-02-04T05:41:29;14.17;;;3.80;;
14381;SDS011;7275;50.328;8.720;2023-02-04T05:43:57;7.27;;;2.83;;
14381;SDS011;7275;50.328;8.720;2023-02-04T05:46:24;8.97;;;2.80;;
14381;SDS011;7275;50.328;8.720;2023-02-04T05:48:53;10.23;;;2.60;;
14381;SDS011;7275;50.328;8.720;2023-02-04T05:51:21;6.60;;;2.23;;
14381;SDS011;7275;50.328;8.720;2023-02-04T05:53:48;8.53;;;2.53;;
14381;SDS011;7275;50.328;8.720;2023-02-04T05:56:16;11.17;;;2.73;;
14381;SDS011;7275;50.328;8.720;2023-02-04T05:58:44;9.57;;;2.73;;
14381;SDS011;7275;50.328;8.720;2023-02-04T06:01:12;6.90;;;2.57;;
14381;SDS011;7275;50.328;8.720;2023-02-04T06:03:39;7.23;;;2.90;;
14381;SDS011;7275;50.328;8.720;2023-02-04T06:06:08;8.47;;;2.80;;
14381;SDS011;7275;50.328;8.720;2023-02-04T06:08:35;7.27;;;2.50;;
14381;SDS011;7275;50.328;8.720;2023-02-04T06:11:03;10.53;;;3.00;;
14381;SDS011;7275;50.328;8.720;2023-02-04T06:13:30;11.77;;;2.87;;
14381;SDS011;7275;50.328;8.720;2023-02-04T06:15:58;8.87;;;2.70;;
14381;SDS011;7275;50.328;8.720;2023-02-04T06:18:25;7.17;;;2.50;;
14381;SDS011;7275;50.328;8.720;2023-02-04T06:20:53;9.77;;;2.67;;
14381;SDS011;7275;50.328;8.720;2023-02-04T06:23:22;5.93;;;2.33;;
14381;SDS011;7275;50.328;8.720;2023-02-04T06:25:49;9.53;;;2.97;;
14381;SDS011;7275;50.328;8.720;2023-02-04T06:28:17;11.77;;;2.50;;
14381;SDS011;7275;50.328;8.720;2023-02-04T06:30:44;7.13;;;2.23;;
14381;SDS011;7275;50.328;8.720;2023-02-04T06:33:12;6.70;;;2.10;;
14381;SDS011;7275;50.328;8.720;2023-02-04T06:35:39;6.93;;;2.33;;
14381;SDS011;7275;50.328;8.720;2023-02-04T06:38:06;9.07;;;2.80;;
14381;SDS011;7275;50.328;8.720;2023-02-04T06:40:35;7.93;;;2.37;;
14381;SDS011;7275;50.328;8.720;2023-02-04T06:43:03;10.33;;;2.80;;
14381;SDS011;7275;50.328;8.720;2023-02-04T06:45:30;9.90;;;2.43;;
14381;SDS011;7275;50.328;8.720;2023-02-04T06:47:58;8.40;;;2.50;;
14381;SDS011;7275;50.328;8.720;2023-02-04T06:50:25;7.67;;;2.90;;
14381;SDS011;7275;50.328;8.720;2023-02-04T06:52:53;8.97;;;2.90;;
14381;SDS011;7275;50.328;8.720;2023-02-04T06:55:20;9.53;;;2.77;;
14381;SDS011;7275;50.328;8.720;2023-02-04T06:57:49;11.77;;;3.50;;
14381;SDS011;7275;50.328;8.720;2023-02-04T07:00:17;6.57;;;2.90;;
14381;SDS011;7275;50.328;8.720;2023-02-04T07:02:44;10.73;;;3.40;;
14381;SDS011;7275;50.328;8.720;2023-02-04T07:05:12;7.80;;;2.90;;
14381;SDS011;7275;50.328;8.720;2023-02-04T07:07:40;9.67;;;3.33;;
14381;SDS011;7275;50.328;8.720;2023-02-04T07:10:08;12.43;;;3.90;;
14381;SDS011;7275;50.328;8.720;2023-02-04T07:12:36;15.10;;;4.60;;
14381;SDS011;7275;50.328;8.720;2023-02-04T07:15:05;15.17;;;5.67;;
14381;SDS011;7275;50.328;8.720;2023-02-04T07:17:33;13.87;;;5.30;;
14381;SDS011;7275;50.328;8.720;2023-02-04T07:20:00;14.60;;;6.77;;
14381;SDS011;7275;50.328;8.720;2023-02-04T07:22:28;17.37;;;8.80;;
14381;SDS011;7275;50.328;8.720;2023-02-04T07:24:55;18.80;;;8.80;;
14381;SDS011;7275;50.328;8.720;2023-02-04T07:27:23;14.33;;;7.20;;
14381;SDS011;7275;50.328;8.720;2023-02-04T07:29:50;14.17;;;6.33;;
14381;SDS011;7275;50.328;8.720;2023-02-04T07:32:19;15.00;;;5.70;;
14381;SDS011;7275;50.328;8.720;2023-02-04T07:34:46;16.27;;;5.20;;
14381;SDS011;7275;50.328;8.720;2023-02-04T07:37:14;9.90;;;4.50;;
14381;SDS011;7275;50.328;8.720;2023-02-04T07:39:41;9.60;;;4.13;;
14381;SDS011;7275;50.328;8.720;2023-02-04T07:42:09;11.80;;;4.03;;
14381;SDS011;7275;50.328;8.720;2023-02-04T07:44:36;10.10;;;3.40;;
14381;SDS011;7275;50.328;8.720;2023-02-04T07:47:04;9.57;;;3.33;;
14381;SDS011;7275;50.328;8.720;2023-02-04T07:49:32;9.97;;;2.97;;
14381;SDS011;7275;50.328;8.720;2023-02-04T07:52:00;9.00;;;3.37;;
14381;SDS011;7275;50.328;8.720;2023-02-04T07:54:27;13.80;;;4.27;;
14381;SDS011;7275;50.328;8.720;2023-02-04T07:56:55;11.10;;;4.13;;
14381;SDS011;7275;50.328;8.720;2023-02-04T07:59:22;10.47;;;4.23;;
14381;SDS011;7275;50.328;8.720;2023-02-04T08:01:50;8.40;;;3.43;;
14381;SDS011;7275;50.328;8.720;2023-02-04T08:04:17;11.00;;;4.20;;
14381;SDS011;7275;50.328;8.720;2023-02-04T08:06:46;10.67;;;4.30;;
14381;SDS011;7275;50.328;8.720;2023-02-04T08:09:14;9.03;;;3.70;;
14381;SDS011;7275;50.328;8.720;2023-02-04T08:11:41;5.80;;;3.10;;
14381;SDS011;7275;50.328;8.720;2023-02-04T08:14:08;10.37;;;3.40;;
14381;SDS011;7275;50.328;8.720;2023-02-04T08:16:36;8.63;;;2.93;;
14381;SDS011;7275;50.328;8.720;2023-02-04T08:19:03;8.60;;;2.97;;
14381;SDS011;7275;50.328;8.720;2023-02-04T08:21:31;8.90;;;2.93;;
14381;SDS011;7275;50.328;8.720;2023-02-04T08:23:59;10.37;;;3.47;;
14381;SDS011;7275;50.328;8.720;2023-02-04T08:26:27;9.70;;;3.77;;
14381;SDS011;7275;50.328;8.720;2023-02-04T08:28:54;8.80;;;3.90;;
14381;SDS011;7275;50.328;8.720;2023-02-04T08:31:22;8.53;;;3.57;;
14381;SDS011;7275;50.328;8.720;2023-02-04T08:33:49;7.00;;;3.37;;
14381;SDS011;7275;50.328;8.720;2023-02-04T08:36:17;9.33;;;3.30;;
14381;SDS011;7275;50.328;8.720;2023-02-04T08:38:44;9.87;;;3.40;;
14381;SDS011;7275;50.328;8.720;2023-02-04T08:41:13;8.67;;;4.07;;
14381;SDS011;7275;50.328;8.720;2023-02-04T08:43:41;9.20;;;4.10;;
14381;SDS011;7275;50.328;8.720;2023-02-04T08:46:08;9.10;;;3.80;;
14381;SDS011;7275;50.328;8.720;2023-02-04T08:48:36;9.83;;;3.30;;
14381;SDS011;7275;50.328;8.720;2023-02-04T08:51:04;8.03;;;3.20;;
14381;SDS011;7275;50.328;8.720;2023-02-04T08:53:31;9.40;;;3.10;;
14381;SDS011;7275;50.328;8.720;2023-02-04T08:55:59;6.40;;;2.60;;
14381;SDS011;7275;50.328;8.720;2023-02-04T08:58:28;6.87;;;3.03;;
14381;SDS011;7275;50.328;8.720;2023-02-04T09:00:55;7.83;;;3.13;;
14381;SDS011;7275;50.328;8.720;2023-02-04T09:03:23;7.27;;;2.83;;
14381;SDS011;7275;50.328;8.720;2023-02-04T09:05:50;8.50;;;3.13;;
14381;SDS011;7275;50.328;8.720;2023-02-04T09:08:18;6.50;;;2.83;;
14381;SDS011;7275;50.328;8.720;2023-02-04T09:10:45;9.20;;;3.20;;
14381;SDS011;7275;50.328;8.720;2023-02-04T09:13:12;10.13;;;3.50;;
14381;SDS011;7275;50.328;8.720;2023-02-04T09:15:41;7.87;;;2.97;;
14381;SDS011;7275;50.328;8.720;2023-02-04T09:18:09;10.73;;;2.80;;
14381;SDS011;7275;50.328;8.720;2023-02-04T09:20:41;9.80;;;3.17;;
14381;SDS011;7275;50.328;8.720;2023-02-04T09:23:09;6.10;;;2.57;;
14381;SDS011;7275;50.328;8.720;2023-02-04T09:25:37;8.10;;;2.80;;
14381;SDS011;7275;50.328;8.720;2023-02-04T09:28:05;6.97;;;2.70;;
14381;SDS011;7275;50.328;8.720;2023-02-04T09:30:35;8.73;;;3.17;;
14381;SDS011;7275;50.328;8.720;2023-02-04T09:33:04;8.23;;;2.97;;
14381;SDS011;7275;50.328;8.720;2023-02-04T09:35:32;6.83;;;2.50;;
14381;SDS011;7275;50.328;8.720;2023-02-04T09:37:59;7.37;;;2.60;;
14381;SDS011;7275;50.328;8.720;2023-02-04T09:40:28;6.30;;;2.60;;
14381;SDS011;7275;50.328;8.720;2023-02-04T09:42:59;4.60;;;2.13;;
14381;SDS011;7275;50.328;8.720;2023-02-04T09:45:28;5.57;;;2.10;;
14381;SDS011;7275;50.328;8.720;2023-02-04T09:47:58;6.00;;;2.03;;
14381;SDS011;7275;50.328;8.720;2023-02-04T09:50:30;6.30;;;2.33;;
14381;SDS011;7275;50.328;8.720;2023-02-04T09:53:00;4.60;;;1.93;;
14381;SDS011;7275;50.328;8.720;2023-02-04T09:55:31;5.03;;;1.90;;
14381;SDS011;7275;50.328;8.720;2023-02-04T09:58:00;4.03;;;1.63;;
14381;SDS011;7275;50.328;8.720;2023-02-04T10:00:28;4.83;;;1.47;;
14381;SDS011;7275;50.328;8.720;2023-02-04T10:02:58;5.23;;;1.87;;
14381;SDS011;7275;50.328;8.720;2023-02-04T10:05:29;5.63;;;2.00;;
14381;SDS011;7275;50.328;8.720;2023-02-04T10:08:02;5.80;;;1.87;;
14381;SDS011;7275;50.328;8.720;2023-02-04T10:10:31;5.10;;;1.80;;
14381;SDS011;7275;50.328;8.720;2023-02-04T10:13:00;5.23;;;1.87;;
14381;SDS011;7275;50.328;8.720;2023-02-04T10:15:29;5.00;;;2.20;;
14381;SDS011;7275;50.328;8.720;2023-02-04T10:17:57;5.10;;;2.00;;
14381;SDS011;7275;50.328;8.720;2023-02-04T10:20:28;5.83;;;2.00;;
14381;SDS011;7275;50.328;8.720;2023-02-04T10:22:58;4.17;;;1.73;;
14381;SDS011;7275;50.328;8.720;2023-02-04T10:25:25;6.03;;;2.00;;
14381;SDS011;7275;50.328;8.720;2023-02-04T10:27:54;9.30;;;4.13;;
14381;SDS011;7275;50.328;8.720;2023-02-04T10:30:23;7.63;;;3.03;;
14381;SDS011;7275;50.328;8.720;2023-02-04T10:32:51;7.17;;;3.17;;
14381;SDS011;7275;50.328;8.720;2023-02-04T10:35:20;5.97;;;2.57;;
14381;SDS011;7275;50.328;8.720;2023-02-04T10:38:01;6.03;;;2.30;;
14381;SDS011;7275;50.328;8.720;2023-02-04T10:40:31;6.77;;;2.20;;
14381;SDS011;7275;50.328;8.720;2023-02-04T10:43:06;5.43;;;2.13;;
14381;SDS011;7275;50.328;8.720;2023-02-04T10:45:35;7.17;;;1.90;;
14381;SDS011;7275;50.328;8.720;2023-02-04T10:48:03;6.33;;;2.03;;
14381;SDS011;7275;50.328;8.720;2023-02-04T10:50:32;6.33;;;1.90;;
14381;SDS011;7275;50.328;8.720;2023-02-04T10:53:00;5.63;;;1.80;;
14381;SDS011;7275;50.328;8.720;2023-02-04T10:55:47;4.17;;;1.70;;
14381;SDS011;7275;50.328;8.720;2023-02-04T10:58:17;4.20;;;1.80;;
14381;SDS011;7275;50.328;8.720;2023-02-04T11:00:48;6.47;;;1.77;;
14381;SDS011;7275;50.328;8.720;2023-02-04T11:03:17;3.80;;;1.80;;
14381;SDS011;7275;50.328;8.720;2023-02-04T11:05:48;5.80;;;1.90;;
14381;SDS011;7275;50.328;8.720;2023-02-04T11:08:18;5.57;;;1.60;;
14381;SDS011;7275;50.328;8.720;2023-02-04T11:10:50;4.23;;;1.73;;
14381;SDS011;7275;50.328;8.720;2023-02-04T11:13:22;4.90;;;1.87;;
14381;SDS011;7275;50.328;8.720;2023-02-04T11:16:05;4.03;;;1.80;;
14381;SDS011;7275;50.328;8.720;2023-02-04T11:18:46;4.13;;;1.85;;
14381;SDS011;7275;50.328;8.720;2023-02-04T11:21:21;4.05;;;1.90;;
14381;SDS011;7275;50.328;8.720;2023-02-04T11:24:02;4.82;;;1.85;;
14381;SDS011;7275;50.328;8.720;2023-02-04T11:26:33;2.78;;;1.73;;
14381;SDS011;7275;50.328;8.720;2023-02-04T11:29:07;6.53;;;2.17;;
14381;SDS011;7275;50.328;8.720;2023-02-04T11:31:57;5.25;;;1.70;;
14381;SDS011;7275;50.328;8.720;2023-02-04T11:34:28;4.25;;;1.70;;
14381;SDS011;7275;50.328;8.720;2023-02-04T11:37:18;3.35;;;1.80;;
14381;SDS011;7275;50.328;8.720;2023-02-04T11:40:00;4.03;;;1.83;;
14381;SDS011;7275;50.328;8.720;2023-02-04T11:42:31;3.60;;;1.75;;
14381;SDS011;7275;50.328;8.720;2023-02-04T11:45:07;3.80;;;1.75;;
14381;SDS011;7275;50.328;8.720;2023-02-04T11:47:40;4.75;;;1.95;;
14381;SDS011;7275;50.328;8.720;2023-02-04T11:50:12;3.53;;;1.70;;
14381;SDS011;7275;50.328;8.720;2023-02-04T11:52:43;4.05;;;1.92;;
14381;SDS011;7275;50.328;8.720;2023-02-04T11:55:11;4.63;;;1.80;;
14381;SDS011;7275;50.328;8.720;2023-02-04T11:57:41;4.95;;;2.03;;
14381;SDS011;7275;50.328;8.720;2023-02-04T12:00:13;3.17;;;1.60;;
14381;SDS011;7275;50.328;8.720;2023-02-04T12:02:43;4.22;;;1.80;;
14381;SDS011;7275;50.328;8.720;2023-02-04T12:05:13;3.53;;;1.85;;
14381;SDS011;7275;50.328;8.720;2023-02-04T12:07:43;4.65;;;1.98;;
14381;SDS011;7275;50.328;8.720;2023-02-04T12:10:12;4.93;;;2.10;;
14381;SDS011;7275;50.328;8.720;2023-02-04T12:12:50;4.10;;;1.67;;
14381;SDS011;7275;50.328;8.720;2023-02-04T12:15:21;4.75;;;1.70;;
14381;SDS011;7275;50.328;8.720;2023-02-04T12:17:59;3.38;;;1.80;;
14381;SDS011;7275;50.328;8.720;2023-02-04T12:20:28;4.22;;;1.83;;
14381;SDS011;7275;50.328;8.720;2023-02-04T12:22:56;4.32;;;1.70;;
14381;SDS011;7275;50.328;8.720;2023-02-04T12:25:24;4.53;;;1.85;;
14381;SDS011;7275;50.328;8.720;2023-02-04T12:27:53;4.47;;;2.10;;
14381;SDS011;7275;50.328;8.720;2023-02-04T12:30:22;4.70;;;2.30;;
14381;SDS011;7275;50.328;8.720;2023-02-04T12:32:51;4.93;;;2.15;;
14381;SDS011;7275;50.328;8.720;2023-02-04T12:35:18;5.50;;;2.00;;
14381;SDS011;7275;50.328;8.720;2023-02-04T12:37:46;7.03;;;2.13;;
14381;SDS011;7275;50.328;8.720;2023-02-04T12:40:14;5.07;;;1.92;;
14381;SDS011;7275;50.328;8.720;2023-02-04T12:42:42;4.45;;;1.95;;
14381;SDS011;7275;50.328;8.720;2023-02-04T12:45:12;6.15;;;2.00;;
14381;SDS011;7275;50.328;8.720;2023-02-04T12:47:41;6.05;;;2.20;;
14381;SDS011;7275;50.328;8.720;2023-02-04T12:50:10;4.63;;;1.90;;
14381;SDS011;7275;50.328;8.720;2023-02-04T12:52:39;5.17;;;1.77;;
14381;SDS011;7275;50.328;8.720;2023-02-04T12:55:06;6.40;;;2.10;;
14381;SDS011;7275;50.328;8.720;2023-02-04T12:57:35;4.90;;;2.23;;
14381;SDS011;7275;50.328;8.720;2023-02-04T13:00:03;4.77;;;2.40;;
14381;SDS011;7275;50.328;8.720;2023-02-04T13:02:32;5.47;;;2.63;;
14381;SDS011;7275;50.328;8.720;2023-02-04T13:05:00;4.53;;;1.90;;
14381;SDS011;7275;50.328;8.720;2023-02-04T13:07:27;5.33;;;1.73;;
14381;SDS011;7275;50.328;8.720;2023-02-04T13:09:54;4.53;;;2.20;;
14381;SDS011;7275;50.328;8.720;2023-02-04T13:12:22;6.30;;;2.03;;
14381;SDS011;7275;50.328;8.720;2023-02-04T13:14:50;5.03;;;2.20;;
14381;SDS011;7275;50.328;8.720;2023-02-04T13:17:17;4.70;;;1.87;;
14381;SDS011;7275;50.328;8.720;2023-02-04T13:19:46;3.77;;;1.70;;
14381;SDS011;7275;50.328;8.720;2023-02-04T13:22:13;4.73;;;1.90;;
14381;SDS011;7275;50.328;8.720;2023-02-04T13:24:41;4.53;;;1.90;;
14381;SDS011;7275;50.328;8.720;2023-02-04T13:27:09;4.23;;;1.70;;
14381;SDS011;7275;50.328;8.720;2023-02-04T13:29:36;6.47;;;2.20;;
14381;SDS011;7275;50.328;8.720;2023-02-04T13:32:04;4.40;;;1.83;;
14381;SDS011;7275;50.328;8.720;2023-02-04T13:34:31;6.57;;;1.90;;
14381;SDS011;7275;50.328;8.720;2023-02-04T13:37:00;4.53;;;1.70;;
14381;SDS011;7275;50.328;8.720;2023-02-04T13:39:28;4.50;;;1.80;;
14381;SDS011;7275;50.328;8.720;2023-02-04T13:41:55;4.53;;;1.83;;
14381;SDS011;7275;50.328;8.720;2023-02-04T13:44:23;5.50;;;2.27;;
14381;SDS011;7275;50.328;8.720;2023-02-04T13:46:50;5.17;;;1.80;;
14381;SDS011;7275;50.328;8.720;2023-02-04T13:49:18;3.47;;;1.60;;
14381;SDS011;7275;50.328;8.720;2023-02-04T13:51:46;3.93;;;1.60;;
14381;SDS011;7275;50.328;8.720;2023-02-04T13:54:15;6.50;;;2.43;;
14381;SDS011;7275;50.328;8.720;2023-02-04T13:56:43;4.67;;;1.90;;
14381;SDS011;7275;50.328;8.720;2023-02-04T13:59:10;5.47;;;2.17;;
14381;SDS011;7275;50.328;8.720;2023-02-04T14:01:37;5.77;;;2.17;;
14381;SDS011;7275;50.328;8.720;2023-02-04T14:04:05;5.17;;;1.93;;
14381;SDS011;7275;50.328;8.720;2023-02-04T14:06:32;4.60;;;1.93;;
14381;SDS011;7275;50.328;8.720;2023-02-04T14:09:03;3.90;;;1.70;;
14381;SDS011;7275;50.328;8.720;2023-02-04T14:11:32;7.90;;;2.60;;
14381;SDS011;7275;50.328;8.720;2023-02-04T14:13:59;4.80;;;1.70;;
14381;SDS011;7275;50.328;8.720;2023-02-04T14:16:27;6.30;;;1.97;;
14381;SDS011;7275;50.328;8.720;2023-02-04T14:18:54;6.17;;;1.90;;
14381;SDS011;7275;50.328;8.720;2023-02-04T14:21:22;4.83;;;1.73;;
14381;SDS011;7275;50.328;8.720;2023-02-04T14:23:49;3.87;;;1.97;;
14381;SDS011;7275;50.328;8.720;2023-02-04T14:26:17;4.33;;;1.90;;
14381;SDS011;7275;50.328;8.720;2023-02-04T14:28:45;3.93;;;1.60;;
14381;SDS011;7275;50.328;8.720;2023-02-04T14:31:13;4.90;;;1.70;;
14381;SDS011;7275;50.328;8.720;2023-02-04T14:33:40;5.90;;;1.80;;
14381;SDS011;7275;50.328;8.720;2023-02-04T14:36:08;5.70;;;1.80;;
14381;SDS011;7275;50.328;8.720;2023-02-04T14:38:35;5.13;;;1.67;;
14381;SDS011;7275;50.328;8.720;2023-02-04T14:41:04;4.83;;;1.60;;
14381;SDS011;7275;50.328;8.720;2023-02-04T14:43:32;4.27;;;1.73;;
14381;SDS011;7275;50.328;8.720;2023-02-04T14:46:04;3.43;;;1.50;;
14381;SDS011;7275;50.328;8.720;2023-02-04T14:48:31;3.37;;;1.60;;
14381;SDS011;7275;50.328;8.720;2023-02-04T14:50:59;3.37;;;1.60;;
14381;SDS011;7275;50.328;8.720;2023-02-04T14:53:26;4.00;;;1.50;;
14381;SDS011;7275;50.328;8.720;2023-02-04T14:55:54;4.10;;;1.60;;
14381;SDS011;7275;50.328;8.720;2023-02-04T14:58:21;4.80;;;2.07;;
14381;SDS011;7275;50.328;8.720;2023-02-04T15:00:52;5.17;;;2.40;;
14381;SDS011;7275;50.328;8.720;2023-02-04T15:03:22;6.10;;;3.07;;
14381;SDS011;7275;50.328;8.720;2023-02-04T15:05:49;6.07;;;3.17;;
14381;SDS011;7275;50.328;8.720;2023-02-04T15:08:16;4.50;;;2.30;;